Aviation Digital Data Service (ADDS)

Output produced by METARs form (0106 UTC 06 December 2019)
found at http://www.aviationweather.gov/metar/data/
 
METAR text: KTVL 060053Z AUTO 00000KT 10SM CLR 02/01 A3010 RMK AO2 SLP194 T00170006
Conditions at: KTVL (SOUTH LAKE TAHOE, CA, US) observed 0053 UTC 06 December 2019
Temperature: 1.7°C (35°F)
Dewpoint: 0.6°C (33°F) [RH = 92%]
Pressure (altimeter): 30.10 inches Hg (1019.4 mb)
[Sea-level pressure: 1019.4 mb]
Winds: calm
Visibility: 10 or more miles (16+ km)
Ceiling: at least 12,000 feet AGL
Clouds: sky clear below 12,000 feet AGL
Weather: automated observation with no human augmentation;
there may or may not be significant weather present at this time

METAR text: KTVL 052353Z AUTO 00000KT 10SM CLR 04/01 A3011 RMK AO2 SLP187 T00390011 10083 20033 53001
Conditions at: KTVL (SOUTH LAKE TAHOE, CA, US) observed 2353 UTC 05 December 2019
Temperature: 3.9°C (39°F)
Dewpoint: 1.1°C (34°F) [RH = 82%]
Pressure (altimeter): 30.11 inches Hg (1019.7 mb)
[Sea-level pressure: 1018.7 mb]
Winds: calm
Visibility: 10 or more miles (16+ km)
Ceiling: at least 12,000 feet AGL
Clouds: sky clear below 12,000 feet AGL
Weather: automated observation with no human augmentation;
there may or may not be significant weather present at this time

METAR text: KTVL 052253Z AUTO 00000KT 10SM CLR 06/01 A3010 RMK AO2 SLP182 T00610011
Conditions at: KTVL (SOUTH LAKE TAHOE, CA, US) observed 2253 UTC 05 December 2019
Temperature: 6.1°C (43°F)
Dewpoint: 1.1°C (34°F) [RH = 70%]
Pressure (altimeter): 30.10 inches Hg (1019.4 mb)
[Sea-level pressure: 1018.2 mb]
Winds: calm
Visibility: 10 or more miles (16+ km)
Ceiling: at least 12,000 feet AGL
Clouds: sky clear below 12,000 feet AGL
Weather: automated observation with no human augmentation;
there may or may not be significant weather present at this time

METAR text: KTVL 052153Z AUTO 03004KT 10SM CLR 07/01 A3010 RMK AO2 SLP181 T00670006
Conditions at: KTVL (SOUTH LAKE TAHOE, CA, US) observed 2153 UTC 05 December 2019
Temperature: 6.7°C (44°F)
Dewpoint: 0.6°C (33°F) [RH = 65%]
Pressure (altimeter): 30.10 inches Hg (1019.4 mb)
[Sea-level pressure: 1018.1 mb]
Winds: from the NNE (30 degrees) at 5 MPH (4 knots; 2.1 m/s)
Visibility: 10 or more miles (16+ km)
Ceiling: at least 12,000 feet AGL
Clouds: sky clear below 12,000 feet AGL
Weather: automated observation with no human augmentation;
there may or may not be significant weather present at this time

METAR text: KTVL 052053Z AUTO 03004KT 10SM CLR 07/00 A3010 RMK AO2 SLP179 T00670000 58010
Conditions at: KTVL (SOUTH LAKE TAHOE, CA, US) observed 2053 UTC 05 December 2019
Temperature: 6.7°C (44°F)
Dewpoint: 0.0°C (32°F) [RH = 62%]
Pressure (altimeter): 30.10 inches Hg (1019.4 mb)
[Sea-level pressure: 1017.9 mb]
Winds: from the NNE (30 degrees) at 5 MPH (4 knots; 2.1 m/s)
Visibility: 10 or more miles (16+ km)
Ceiling: at least 12,000 feet AGL
Clouds: sky clear below 12,000 feet AGL
Weather: automated observation with no human augmentation;
there may or may not be significant weather present at this time

METAR text: KTVL 051953Z AUTO 00000KT 10SM CLR 07/M01 A3012 RMK AO2 SLP180 T00721006
Conditions at: KTVL (SOUTH LAKE TAHOE, CA, US) observed 1953 UTC 05 December 2019
Temperature: 7.2°C (45°F)
Dewpoint: -0.6°C (31°F) [RH = 58%]
Pressure (altimeter): 30.12 inches Hg (1020.1 mb)
[Sea-level pressure: 1018.0 mb]
Winds: calm
Visibility: 10 or more miles (16+ km)
Ceiling: at least 12,000 feet AGL
Clouds: sky clear below 12,000 feet AGL
Weather: automated observation with no human augmentation;
there may or may not be significant weather present at this time

METAR text: KTVL 051853Z AUTO 00000KT 10SM CLR 06/M01 A3013 RMK AO2 SLP188 T00611006
Conditions at: KTVL (SOUTH LAKE TAHOE, CA, US) observed 1853 UTC 05 December 2019
Temperature: 6.1°C (43°F)
Dewpoint: -0.6°C (31°F) [RH = 62%]
Pressure (altimeter): 30.13 inches Hg (1020.4 mb)
[Sea-level pressure: 1018.8 mb]
Winds: calm
Visibility: 10 or more miles (16+ km)
Ceiling: at least 12,000 feet AGL
Clouds: sky clear below 12,000 feet AGL
Weather: automated observation with no human augmentation;
there may or may not be significant weather present at this time

METAR text: KTVL 051753Z AUTO 00000KT 10SM CLR 03/00 A3014 RMK AO2 SLP197 I6002 T00330000 10033 21028 53016
Conditions at: KTVL (SOUTH LAKE TAHOE, CA, US) observed 1753 UTC 05 December 2019
Temperature: 3.3°C (38°F)
Dewpoint: 0.0°C (32°F) [RH = 79%]
Pressure (altimeter): 30.14 inches Hg (1020.7 mb)
[Sea-level pressure: 1019.7 mb]
Winds: calm
Visibility: 10 or more miles (16+ km)
Ceiling: at least 12,000 feet AGL
Clouds: sky clear below 12,000 feet AGL
Weather: automated observation with no human augmentation;
there may or may not be significant weather present at this time

METAR text: KTVL 051653Z AUTO 17003KT 10SM CLR M01/M01 A3012 RMK AO2 SLP195 T10061011
Conditions at: KTVL (SOUTH LAKE TAHOE, CA, US) observed 1653 UTC 05 December 2019
Temperature: -0.6°C (31°F)
Dewpoint: -1.1°C (30°F) [RH = 96%]
Pressure (altimeter): 30.12 inches Hg (1020.1 mb)
[Sea-level pressure: 1019.5 mb]
Winds: from the S (170 degrees) at 3 MPH (3 knots; 1.5 m/s)
Visibility: 10 or more miles (16+ km)
Ceiling: at least 12,000 feet AGL
Clouds: sky clear below 12,000 feet AGL
Weather: automated observation with no human augmentation;
there may or may not be significant weather present at this time

METAR text: KTVL 051605Z AUTO 18003KT 10SM FEW001 M02/M02 A3010 RMK AO2 T10171022
Conditions at: KTVL (SOUTH LAKE TAHOE, CA, US) observed 1605 UTC 05 December 2019
Temperature: -1.7°C (29°F)
Dewpoint: -2.2°C (28°F) [RH = 96%]
Pressure (altimeter): 30.10 inches Hg (1019.4 mb)
Winds: from the S (180 degrees) at 3 MPH (3 knots; 1.5 m/s)
Visibility: 10 or more miles (16+ km)
Ceiling: at least 12,000 feet AGL
Clouds: few clouds at 100 feet AGL
Weather: automated observation with no human augmentation;
there may or may not be significant weather present at this time

METAR text: KTVL 051558Z AUTO 20003KT 3SM BR SCT001 M02/M02 A3010 RMK AO2 T10221022
Conditions at: KTVL (SOUTH LAKE TAHOE, CA, US) observed 1558 UTC 05 December 2019
Temperature: -2.2°C (28°F)
Dewpoint: -2.2°C (28°F) [RH = 100%]
Pressure (altimeter): 30.10 inches Hg (1019.4 mb)
Winds: from the SSW (200 degrees) at 3 MPH (3 knots; 1.5 m/s)
Visibility: 3 miles ( 5 km)
Ceiling: at least 12,000 feet AGL
Clouds: scattered clouds at 100 feet AGL
Weather: BR  (mist)

METAR text: KTVL 051555Z AUTO 19003KT 1 1/4SM BR SCT001 M02/M03 A3010 RMK AO2 T10221028
Conditions at: KTVL (SOUTH LAKE TAHOE, CA, US) observed 1555 UTC 05 December 2019
Temperature: -2.2°C (28°F)
Dewpoint: -2.8°C (27°F) [RH = 96%]
Pressure (altimeter): 30.10 inches Hg (1019.4 mb)
Winds: from the S (190 degrees) at 3 MPH (3 knots; 1.5 m/s)
Visibility: 1.25 miles (2.01 km)
Ceiling: at least 12,000 feet AGL
Clouds: scattered clouds at 100 feet AGL
Weather: BR  (mist)

METAR text: KTVL 051553Z AUTO 19003KT 3/4SM BR VV001 M02/M03 A3010 RMK AO2 SLP195 I1001 T10221028
Conditions at: KTVL (SOUTH LAKE TAHOE, CA, US) observed 1553 UTC 05 December 2019
Temperature: -2.2°C (28°F)
Dewpoint: -2.8°C (27°F) [RH = 96%]
Pressure (altimeter): 30.10 inches Hg (1019.4 mb)
[Sea-level pressure: 1019.5 mb]
Winds: from the S (190 degrees) at 3 MPH (3 knots; 1.5 m/s)
Visibility: 0.75 miles (1.21 km)
Ceiling: indefinite ceiling with vertical visibility of 100 feet AGL
Clouds: obscured sky
Weather: BR  (mist)

METAR text: KTVL 051508Z AUTO 00000KT 1/2SM FZFG VV001 M02/M03 A3009 RMK AO2 T10221033
Conditions at: KTVL (SOUTH LAKE TAHOE, CA, US) observed 1508 UTC 05 December 2019
Temperature: -2.2°C (28°F)
Dewpoint: -3.3°C (26°F) [RH = 92%]
Pressure (altimeter): 30.09 inches Hg (1019.0 mb)
Winds: calm
Visibility: 0.50 miles (0.80 km)
Ceiling: indefinite ceiling with vertical visibility of 100 feet AGL
Clouds: obscured sky
Weather: FZFG  (freezing fog)

METAR text: KTVL 051505Z AUTO 00000KT 1 1/2SM BR CLR M02/M03 A3009 RMK AO2 T10221033
Conditions at: KTVL (SOUTH LAKE TAHOE, CA, US) observed 1505 UTC 05 December 2019
Temperature: -2.2°C (28°F)
Dewpoint: -3.3°C (26°F) [RH = 92%]
Pressure (altimeter): 30.09 inches Hg (1019.0 mb)
Winds: calm
Visibility: 1.50 miles (2.41 km)
Ceiling: at least 12,000 feet AGL
Clouds: sky clear below 12,000 feet AGL
Weather: BR  (mist)

METAR text: KTVL 051453Z AUTO 00000KT 10SM CLR M02/M02 A3008 RMK AO2 SLP186 I1000 I3001 T10171022 53012
Conditions at: KTVL (SOUTH LAKE TAHOE, CA, US) observed 1453 UTC 05 December 2019
Temperature: -1.7°C (29°F)
Dewpoint: -2.2°C (28°F) [RH = 96%]
Pressure (altimeter): 30.08 inches Hg (1018.7 mb)
[Sea-level pressure: 1018.6 mb]
Winds: calm
Visibility: 10 or more miles (16+ km)
Ceiling: at least 12,000 feet AGL
Clouds: sky clear below 12,000 feet AGL
Weather: automated observation with no human augmentation;
there may or may not be significant weather present at this time

METAR text: KTVL 051417Z AUTO 19003KT 10SM CLR M01/M02 A3008 RMK AO2 T10111017
Conditions at: KTVL (SOUTH LAKE TAHOE, CA, US) observed 1417 UTC 05 December 2019
Temperature: -1.1°C (30°F)
Dewpoint: -1.7°C (29°F) [RH = 96%]
Pressure (altimeter): 30.08 inches Hg (1018.7 mb)
Winds: from the S (190 degrees) at 3 MPH (3 knots; 1.5 m/s)
Visibility: 10 or more miles (16+ km)
Ceiling: at least 12,000 feet AGL
Clouds: sky clear below 12,000 feet AGL
Weather: automated observation with no human augmentation;
there may or may not be significant weather present at this time

METAR text: KTVL 051408Z AUTO 00000KT 4SM BR CLR M01/M02 A3007 RMK AO2 T10111022
Conditions at: KTVL (SOUTH LAKE TAHOE, CA, US) observed 1408 UTC 05 December 2019
Temperature: -1.1°C (30°F)
Dewpoint: -2.2°C (28°F) [RH = 92%]
Pressure (altimeter): 30.07 inches Hg (1018.4 mb)
Winds: calm
Visibility: 4 miles ( 6 km)
Ceiling: at least 12,000 feet AGL
Clouds: sky clear below 12,000 feet AGL
Weather: BR  (mist)

METAR text: KTVL 051353Z AUTO 00000KT 7SM CLR M02/M02 A3006 RMK AO2 SLP181 I1001 T10171022
Conditions at: KTVL (SOUTH LAKE TAHOE, CA, US) observed 1353 UTC 05 December 2019
Temperature: -1.7°C (29°F)
Dewpoint: -2.2°C (28°F) [RH = 96%]
Pressure (altimeter): 30.06 inches Hg (1018.0 mb)
[Sea-level pressure: 1018.1 mb]
Winds: calm
Visibility: 7 miles (11 km)
Ceiling: at least 12,000 feet AGL
Clouds: sky clear below 12,000 feet AGL
Weather: automated observation with no human augmentation;
there may or may not be significant weather present at this time

METAR text: KTVL 051320Z AUTO 00000KT 8SM FEW001 M01/M01 A3005 RMK AO2 I1000 T10061011
Conditions at: KTVL (SOUTH LAKE TAHOE, CA, US) observed 1320 UTC 05 December 2019
Temperature: -0.6°C (31°F)
Dewpoint: -1.1°C (30°F) [RH = 96%]
Pressure (altimeter): 30.05 inches Hg (1017.7 mb)
Winds: calm
Visibility: 8 miles (13 km)
Ceiling: at least 12,000 feet AGL
Clouds: few clouds at 100 feet AGL
Weather: automated observation with no human augmentation;
there may or may not be significant weather present at this time

METAR text: KTVL 051312Z AUTO 20003KT 3SM BR FEW001 M01/M01 A3006 RMK AO2 I1000 T10061011
Conditions at: KTVL (SOUTH LAKE TAHOE, CA, US) observed 1312 UTC 05 December 2019
Temperature: -0.6°C (31°F)
Dewpoint: -1.1°C (30°F) [RH = 96%]
Pressure (altimeter): 30.06 inches Hg (1018.0 mb)
Winds: from the SSW (200 degrees) at 3 MPH (3 knots; 1.5 m/s)
Visibility: 3 miles ( 5 km)
Ceiling: at least 12,000 feet AGL
Clouds: few clouds at 100 feet AGL
Weather: BR  (mist)

METAR text: KTVL 051303Z AUTO 20003KT 1 3/4SM BR SCT002 M01/M01 A3006 RMK AO2 T10061011
Conditions at: KTVL (SOUTH LAKE TAHOE, CA, US) observed 1303 UTC 05 December 2019
Temperature: -0.6°C (31°F)
Dewpoint: -1.1°C (30°F) [RH = 96%]
Pressure (altimeter): 30.06 inches Hg (1018.0 mb)
Winds: from the SSW (200 degrees) at 3 MPH (3 knots; 1.5 m/s)
Visibility: 1.75 miles (2.82 km)
Ceiling: at least 12,000 feet AGL
Clouds: scattered clouds at 200 feet AGL
Weather: BR  (mist)

METAR text: KTVL 051300Z AUTO 00000KT 4SM BR FEW002 M01/M01 A3006 RMK AO2 T10061011
Conditions at: KTVL (SOUTH LAKE TAHOE, CA, US) observed 1300 UTC 05 December 2019
Temperature: -0.6°C (31°F)
Dewpoint: -1.1°C (30°F) [RH = 96%]
Pressure (altimeter): 30.06 inches Hg (1018.0 mb)
Winds: calm
Visibility: 4 miles ( 6 km)
Ceiling: at least 12,000 feet AGL
Clouds: few clouds at 200 feet AGL
Weather: BR  (mist)

METAR text: KTVL 051253Z AUTO 00000KT 10SM CLR M01/M01 A3005 RMK AO2 SLP174 I1000 T10061011
Conditions at: KTVL (SOUTH LAKE TAHOE, CA, US) observed 1253 UTC 05 December 2019
Temperature: -0.6°C (31°F)
Dewpoint: -1.1°C (30°F) [RH = 96%]
Pressure (altimeter): 30.05 inches Hg (1017.7 mb)
[Sea-level pressure: 1017.4 mb]
Winds: calm
Visibility: 10 or more miles (16+ km)
Ceiling: at least 12,000 feet AGL
Clouds: sky clear below 12,000 feet AGL
Weather: automated observation with no human augmentation;
there may or may not be significant weather present at this time

METAR text: KTVL 051153Z AUTO 00000KT 10SM OVC037 01/00 A3004 RMK AO2 SLP166 60000 70014 T00060000 10028 20000 53012
Conditions at: KTVL (SOUTH LAKE TAHOE, CA, US) observed 1153 UTC 05 December 2019
Temperature: 0.6°C (33°F)
Dewpoint: 0.0°C (32°F) [RH = 96%]
Pressure (altimeter): 30.04 inches Hg (1017.4 mb)
[Sea-level pressure: 1016.6 mb]
Winds: calm
Visibility: 10 or more miles (16+ km)
Ceiling: 3700 feet AGL
Clouds: overcast cloud deck at 3700 feet AGL
Weather: automated observation with no human augmentation;
there may or may not be significant weather present at this time

METAR text: KTVL 051100Z AUTO 00000KT 10SM BKN031 OVC040 01/00 A3003 RMK AO2 T00060000
Conditions at: KTVL (SOUTH LAKE TAHOE, CA, US) observed 1100 UTC 05 December 2019
Temperature: 0.6°C (33°F)
Dewpoint: 0.0°C (32°F) [RH = 96%]
Pressure (altimeter): 30.03 inches Hg (1017.0 mb)
Winds: calm
Visibility: 10 or more miles (16+ km)
Ceiling: 3100 feet AGL
Clouds: broken clouds at 3100 feet AGL
overcast cloud deck at 4000 feet AGL
Weather: automated observation with no human augmentation;
there may or may not be significant weather present at this time

METAR text: KTVL 051053Z AUTO 00000KT 10SM OVC029 01/00 A3003 RMK AO2 SLP162 T00060000
Conditions at: KTVL (SOUTH LAKE TAHOE, CA, US) observed 1053 UTC 05 December 2019
Temperature: 0.6°C (33°F)
Dewpoint: 0.0°C (32°F) [RH = 96%]
Pressure (altimeter): 30.03 inches Hg (1017.0 mb)
[Sea-level pressure: 1016.2 mb]
Winds: calm
Visibility: 10 or more miles (16+ km)
Ceiling: 2900 feet AGL
Clouds: overcast cloud deck at 2900 feet AGL
Weather: automated observation with no human augmentation;
there may or may not be significant weather present at this time

METAR text: KTVL 051037Z AUTO 00000KT 10SM BKN029 OVC036 01/00 A3003 RMK AO2 T00060000
Conditions at: KTVL (SOUTH LAKE TAHOE, CA, US) observed 1037 UTC 05 December 2019
Temperature: 0.6°C (33°F)
Dewpoint: 0.0°C (32°F) [RH = 96%]
Pressure (altimeter): 30.03 inches Hg (1017.0 mb)
Winds: calm
Visibility: 10 or more miles (16+ km)
Ceiling: 2900 feet AGL
Clouds: broken clouds at 2900 feet AGL
overcast cloud deck at 3600 feet AGL
Weather: automated observation with no human augmentation;
there may or may not be significant weather present at this time

METAR text: KTVL 050953Z AUTO 00000KT 10SM FEW030 SCT041 00/M01 A3001 RMK AO2 RAE01 SLP157 P0000 T00001006
Conditions at: KTVL (SOUTH LAKE TAHOE, CA, US) observed 0953 UTC 05 December 2019
Temperature: 0.0°C (32°F)
Dewpoint: -0.6°C (31°F) [RH = 96%]
Pressure (altimeter): 30.01 inches Hg (1016.3 mb)
[Sea-level pressure: 1015.7 mb]
Winds: calm
Visibility: 10 or more miles (16+ km)
Ceiling: at least 12,000 feet AGL
Clouds: few clouds at 3000 feet AGL
scattered clouds at 4100 feet AGL
Weather: automated observation with no human augmentation;
there may or may not be significant weather present at this time

METAR text: KTVL 050853Z AUTO 00000KT 10SM -RA FEW028 BKN037 OVC044 01/00 A3000 RMK AO2 RAE16B31 SLP151 P0000 60000 T00110000 51014
Conditions at: KTVL (SOUTH LAKE TAHOE, CA, US) observed 0853 UTC 05 December 2019
Temperature: 1.1°C (34°F)
Dewpoint: 0.0°C (32°F) [RH = 92%]
Pressure (altimeter): 30.00 inches Hg (1016.0 mb)
[Sea-level pressure: 1015.1 mb]
Winds: calm
Visibility: 10 or more miles (16+ km)
Ceiling: 3700 feet AGL
Clouds: few clouds at 2800 feet AGL
broken clouds at 3700 feet AGL
overcast cloud deck at 4400 feet AGL
Weather: -RA  (light rain)

METAR text: KTVL 050824Z AUTO 00000KT 10SM SCT030 OVC038 01/01 A2999 RMK AO2 RAE16 P0000 T00110006
Conditions at: KTVL (SOUTH LAKE TAHOE, CA, US) observed 0824 UTC 05 December 2019
Temperature: 1.1°C (34°F)
Dewpoint: 0.6°C (33°F) [RH = 96%]
Pressure (altimeter): 29.99 inches Hg (1015.7 mb)
Winds: calm
Visibility: 10 or more miles (16+ km)
Ceiling: 3800 feet AGL
Clouds: scattered clouds at 3000 feet AGL
overcast cloud deck at 3800 feet AGL
Weather: automated observation with no human augmentation;
there may or may not be significant weather present at this time

METAR text: KTVL 050753Z AUTO 00000KT 10SM -RA BKN024 BKN031 OVC045 02/00 A2998 RMK AO2 RAB49 SLP146 P0000 T00220000 400281017
Conditions at: KTVL (SOUTH LAKE TAHOE, CA, US) observed 0753 UTC 05 December 2019
Temperature: 2.2°C (36°F)
Dewpoint: 0.0°C (32°F) [RH = 85%]
Pressure (altimeter): 29.98 inches Hg (1015.3 mb)
[Sea-level pressure: 1014.6 mb]
Winds: calm
Visibility: 10 or more miles (16+ km)
Ceiling: 2400 feet AGL
Clouds: broken clouds at 2400 feet AGL
broken clouds at 3100 feet AGL
overcast cloud deck at 4500 feet AGL
Weather: -RA  (light rain)

METAR text: KTVL 050733Z AUTO 16005KT 10SM BKN025 OVC043 02/00 A2998 RMK AO2 T00220000
Conditions at: KTVL (SOUTH LAKE TAHOE, CA, US) observed 0733 UTC 05 December 2019
Temperature: 2.2°C (36°F)
Dewpoint: 0.0°C (32°F) [RH = 85%]
Pressure (altimeter): 29.98 inches Hg (1015.3 mb)
Winds: from the SSE (160 degrees) at 6 MPH (5 knots; 2.6 m/s)
Visibility: 10 or more miles (16+ km)
Ceiling: 2500 feet AGL
Clouds: broken clouds at 2500 feet AGL
overcast cloud deck at 4300 feet AGL
Weather: automated observation with no human augmentation;
there may or may not be significant weather present at this time

METAR text: KTVL 050721Z AUTO 17004KT 10SM SCT027 BKN034 OVC043 02/01 A2998 RMK AO2 T00220006
Conditions at: KTVL (SOUTH LAKE TAHOE, CA, US) observed 0721 UTC 05 December 2019
Temperature: 2.2°C (36°F)
Dewpoint: 0.6°C (33°F) [RH = 89%]
Pressure (altimeter): 29.98 inches Hg (1015.3 mb)
Winds: from the S (170 degrees) at 5 MPH (4 knots; 2.1 m/s)
Visibility: 10 or more miles (16+ km)
Ceiling: 3400 feet AGL
Clouds: scattered clouds at 2700 feet AGL
broken clouds at 3400 feet AGL
overcast cloud deck at 4300 feet AGL
Weather: automated observation with no human augmentation;
there may or may not be significant weather present at this time

METAR text: KTVL 050653Z AUTO 00000KT 10SM BKN024 OVC034 02/01 A2997 RMK AO2 SLP142 T00170006
Conditions at: KTVL (SOUTH LAKE TAHOE, CA, US) observed 0653 UTC 05 December 2019
Temperature: 1.7°C (35°F)
Dewpoint: 0.6°C (33°F) [RH = 92%]
Pressure (altimeter): 29.97 inches Hg (1015.0 mb)
[Sea-level pressure: 1014.2 mb]
Winds: calm
Visibility: 10 or more miles (16+ km)
Ceiling: 2400 feet AGL
Clouds: broken clouds at 2400 feet AGL
overcast cloud deck at 3400 feet AGL
Weather: automated observation with no human augmentation;
there may or may not be significant weather present at this time

METAR text: KTVL 050553Z AUTO 23003KT 10SM BKN021 OVC026 02/01 A2995 RMK AO2 SLP134 60000 T00220006 10028 20011 51022
Conditions at: KTVL (SOUTH LAKE TAHOE, CA, US) observed 0553 UTC 05 December 2019
Temperature: 2.2°C (36°F)
Dewpoint: 0.6°C (33°F) [RH = 89%]
Pressure (altimeter): 29.95 inches Hg (1014.3 mb)
[Sea-level pressure: 1013.4 mb]
Winds: from the SW (230 degrees) at 3 MPH (3 knots; 1.5 m/s)
Visibility: 10 or more miles (16+ km)
Ceiling: 2100 feet AGL
Clouds: broken clouds at 2100 feet AGL
overcast cloud deck at 2600 feet AGL
Weather: automated observation with no human augmentation;
there may or may not be significant weather present at this time

METAR text: KTVL 050453Z AUTO 18003KT 10SM OVC023 02/01 A2993 RMK AO2 SLP126 T00220006
Conditions at: KTVL (SOUTH LAKE TAHOE, CA, US) observed 0453 UTC 05 December 2019
Temperature: 2.2°C (36°F)
Dewpoint: 0.6°C (33°F) [RH = 89%]
Pressure (altimeter): 29.93 inches Hg (1013.6 mb)
[Sea-level pressure: 1012.6 mb]
Winds: from the S (180 degrees) at 3 MPH (3 knots; 1.5 m/s)
Visibility: 10 or more miles (16+ km)
Ceiling: 2300 feet AGL
Clouds: overcast cloud deck at 2300 feet AGL
Weather: automated observation with no human augmentation;
there may or may not be significant weather present at this time

METAR text: KTVL 050400Z AUTO 00000KT 10SM SCT019 BKN024 OVC029 02/01 A2990 RMK AO2 T00220011
Conditions at: KTVL (SOUTH LAKE TAHOE, CA, US) observed 0400 UTC 05 December 2019
Temperature: 2.2°C (36°F)
Dewpoint: 1.1°C (34°F) [RH = 92%]
Pressure (altimeter): 29.90 inches Hg (1012.6 mb)
Winds: calm
Visibility: 10 or more miles (16+ km)
Ceiling: 2400 feet AGL
Clouds: scattered clouds at 1900 feet AGL
broken clouds at 2400 feet AGL
overcast cloud deck at 2900 feet AGL
Weather: automated observation with no human augmentation;
there may or may not be significant weather present at this time

METAR text: KTVL 050353Z AUTO VRB03KT 10SM SCT020 OVC030 02/01 A2990 RMK AO2 SLP116 T00220011
Conditions at: KTVL (SOUTH LAKE TAHOE, CA, US) observed 0353 UTC 05 December 2019
Temperature: 2.2°C (36°F)
Dewpoint: 1.1°C (34°F) [RH = 92%]
Pressure (altimeter): 29.90 inches Hg (1012.6 mb)
[Sea-level pressure: 1011.6 mb]
Winds: variable direction winds at 3 MPH (3 knots; 1.5 m/s)
Visibility: 10 or more miles (16+ km)
Ceiling: 3000 feet AGL
Clouds: scattered clouds at 2000 feet AGL
overcast cloud deck at 3000 feet AGL
Weather: automated observation with no human augmentation;
there may or may not be significant weather present at this time

METAR text: KTVL 050335Z AUTO VRB04KT 10SM BKN029 BKN037 OVC070 03/01 A2989 RMK AO2 T00280011
Conditions at: KTVL (SOUTH LAKE TAHOE, CA, US) observed 0335 UTC 05 December 2019
Temperature: 2.8°C (37°F)
Dewpoint: 1.1°C (34°F) [RH = 89%]
Pressure (altimeter): 29.89 inches Hg (1012.3 mb)
Winds: variable direction winds at 5 MPH (4 knots; 2.1 m/s)
Visibility: 10 or more miles (16+ km)
Ceiling: 2900 feet AGL
Clouds: broken clouds at 2900 feet AGL
broken clouds at 3700 feet AGL
overcast cloud deck at 7000 feet AGL
Weather: automated observation with no human augmentation;
there may or may not be significant weather present at this time

METAR text: KTVL 050253Z AUTO 22004KT 10SM FEW036 OVC085 03/01 A2987 RMK AO2 SLP107 60000 T00280006 52006
Conditions at: KTVL (SOUTH LAKE TAHOE, CA, US) observed 0253 UTC 05 December 2019
Temperature: 2.8°C (37°F)
Dewpoint: 0.6°C (33°F) [RH = 85%]
Pressure (altimeter): 29.87 inches Hg (1011.6 mb)
[Sea-level pressure: 1010.7 mb]
Winds: from the SW (220 degrees) at 5 MPH (4 knots; 2.1 m/s)
Visibility: 10 or more miles (16+ km)
Ceiling: 8500 feet AGL
Clouds: few clouds at 3600 feet AGL
overcast cloud deck at 8500 feet AGL
Weather: automated observation with no human augmentation;
there may or may not be significant weather present at this time

METAR text: KTVL 050217Z AUTO 20005KT 7SM FEW029 OVC085 02/01 A2986 RMK AO2 T00220006
Conditions at: KTVL (SOUTH LAKE TAHOE, CA, US) observed 0217 UTC 05 December 2019
Temperature: 2.2°C (36°F)
Dewpoint: 0.6°C (33°F) [RH = 89%]
Pressure (altimeter): 29.86 inches Hg (1011.3 mb)
Winds: from the SSW (200 degrees) at 6 MPH (5 knots; 2.6 m/s)
Visibility: 7 miles (11 km)
Ceiling: 8500 feet AGL
Clouds: few clouds at 2900 feet AGL
overcast cloud deck at 8500 feet AGL
Weather: automated observation with no human augmentation;
there may or may not be significant weather present at this time

METAR text: KTVL 050200Z AUTO 19003KT 3SM BR FEW001 BKN030 OVC090 01/01 A2986 RMK AO2 T00110011
Conditions at: KTVL (SOUTH LAKE TAHOE, CA, US) observed 0200 UTC 05 December 2019
Temperature: 1.1°C (34°F)
Dewpoint: 1.1°C (34°F) [RH = 100%]
Pressure (altimeter): 29.86 inches Hg (1011.3 mb)
Winds: from the S (190 degrees) at 3 MPH (3 knots; 1.5 m/s)
Visibility: 3 miles ( 5 km)
Ceiling: 3000 feet AGL
Clouds: few clouds at 100 feet AGL
broken clouds at 3000 feet AGL
overcast cloud deck at 9000 feet AGL
Weather: BR  (mist)

METAR text: KTVL 050153Z AUTO 19003KT 2 1/2SM BR SCT001 BKN030 OVC080 01/01 A2986 RMK AO2 SLP109 T00110006
Conditions at: KTVL (SOUTH LAKE TAHOE, CA, US) observed 0153 UTC 05 December 2019
Temperature: 1.1°C (34°F)
Dewpoint: 0.6°C (33°F) [RH = 96%]
Pressure (altimeter): 29.86 inches Hg (1011.3 mb)
[Sea-level pressure: 1010.9 mb]
Winds: from the S (190 degrees) at 3 MPH (3 knots; 1.5 m/s)
Visibility: 2.50 miles (4.02 km)
Ceiling: 3000 feet AGL
Clouds: scattered clouds at 100 feet AGL
broken clouds at 3000 feet AGL
overcast cloud deck at 8000 feet AGL
Weather: BR  (mist)

METAR text: KTVL 050149Z AUTO 00000KT 2SM BR SCT001 BKN025 OVC085 01/01 A2986 RMK AO2
Conditions at: KTVL (SOUTH LAKE TAHOE, CA, US) observed 0149 UTC 05 December 2019
Temperature: 1.0°C (34°F)
Dewpoint: 1.0°C (34°F) [RH = 100%]
Pressure (altimeter): 29.86 inches Hg (1011.3 mb)
Winds: calm
Visibility: 2.00 miles (3.22 km)
Ceiling: 2500 feet AGL
Clouds: scattered clouds at 100 feet AGL
broken clouds at 2500 feet AGL
overcast cloud deck at 8500 feet AGL
Weather: BR  (mist)

METAR text: KTVL 050143Z AUTO 00000KT 1 3/4SM BR BKN001 BKN028 OVC085 01/01 A2986 RMK AO2 T00110011
Conditions at: KTVL (SOUTH LAKE TAHOE, CA, US) observed 0143 UTC 05 December 2019
Temperature: 1.1°C (34°F)
Dewpoint: 1.1°C (34°F) [RH = 100%]
Pressure (altimeter): 29.86 inches Hg (1011.3 mb)
Winds: calm
Visibility: 1.75 miles (2.82 km)
Ceiling: 100 feet AGL
Clouds: broken clouds at 100 feet AGL
broken clouds at 2800 feet AGL
overcast cloud deck at 8500 feet AGL
Weather: BR  (mist)

METAR text: KTVL 050135Z AUTO 00000KT 2 1/2SM BR SCT001 BKN028 OVC080 01/01 A2986 RMK AO2 T00110006
Conditions at: KTVL (SOUTH LAKE TAHOE, CA, US) observed 0135 UTC 05 December 2019
Temperature: 1.1°C (34°F)
Dewpoint: 0.6°C (33°F) [RH = 96%]
Pressure (altimeter): 29.86 inches Hg (1011.3 mb)
Winds: calm
Visibility: 2.50 miles (4.02 km)
Ceiling: 2800 feet AGL
Clouds: scattered clouds at 100 feet AGL
broken clouds at 2800 feet AGL
overcast cloud deck at 8000 feet AGL
Weather: BR  (mist)

METAR text: KTVL 050114Z AUTO 00000KT 3SM BR FEW001 FEW026 OVC080 01/01 A2986 RMK AO2 T00110011
Conditions at: KTVL (SOUTH LAKE TAHOE, CA, US) observed 0114 UTC 05 December 2019
Temperature: 1.1°C (34°F)
Dewpoint: 1.1°C (34°F) [RH = 100%]
Pressure (altimeter): 29.86 inches Hg (1011.3 mb)
Winds: calm
Visibility: 3 miles ( 5 km)
Ceiling: 8000 feet AGL
Clouds: few clouds at 100 feet AGL
few clouds at 2600 feet AGL
overcast cloud deck at 8000 feet AGL
Weather: BR  (mist)

METAR text: KTVL 050103Z AUTO 00000KT 6SM BR SCT026 BKN070 OVC085 01/01 A2986 RMK AO2 T00110011
Conditions at: KTVL (SOUTH LAKE TAHOE, CA, US) observed 0103 UTC 05 December 2019
Temperature: 1.1°C (34°F)
Dewpoint: 1.1°C (34°F) [RH = 100%]
Pressure (altimeter): 29.86 inches Hg (1011.3 mb)
Winds: calm
Visibility: 6 miles (10 km)
Ceiling: 7000 feet AGL
Clouds: scattered clouds at 2600 feet AGL
broken clouds at 7000 feet AGL
overcast cloud deck at 8500 feet AGL
Weather: BR  (mist)

METAR text: KTVL 050053Z AUTO 00000KT 8SM FEW004 BKN026 OVC075 02/01 A2986 RMK AO2 RAE03B26E41 SLP106 P0000 T00170011
Conditions at: KTVL (SOUTH LAKE TAHOE, CA, US) observed 0053 UTC 05 December 2019
Temperature: 1.7°C (35°F)
Dewpoint: 1.1°C (34°F) [RH = 96%]
Pressure (altimeter): 29.86 inches Hg (1011.3 mb)
[Sea-level pressure: 1010.6 mb]
Winds: calm
Visibility: 8 miles (13 km)
Ceiling: 2600 feet AGL
Clouds: few clouds at 400 feet AGL
broken clouds at 2600 feet AGL
overcast cloud deck at 7500 feet AGL
Weather: automated observation with no human augmentation;
there may or may not be significant weather present at this time

METAR text: KTVL 050029Z AUTO 00000KT 7SM -RA FEW005 BKN027 OVC031 02/01 A2986 RMK AO2 RAE03B26 P0000 T00170011
Conditions at: KTVL (SOUTH LAKE TAHOE, CA, US) observed 0029 UTC 05 December 2019
Temperature: 1.7°C (35°F)
Dewpoint: 1.1°C (34°F) [RH = 96%]
Pressure (altimeter): 29.86 inches Hg (1011.3 mb)
Winds: calm
Visibility: 7 miles (11 km)
Ceiling: 2700 feet AGL
Clouds: few clouds at 500 feet AGL
broken clouds at 2700 feet AGL
overcast cloud deck at 3100 feet AGL
Weather: -RA  (light rain)

METAR text: KTVL 050004Z AUTO 00000KT 10SM FEW007 BKN031 OVC065 02/01 A2985 RMK AO2 RAE03 P0000 T00170011
Conditions at: KTVL (SOUTH LAKE TAHOE, CA, US) observed 0004 UTC 05 December 2019
Temperature: 1.7°C (35°F)
Dewpoint: 1.1°C (34°F) [RH = 96%]
Pressure (altimeter): 29.85 inches Hg (1010.9 mb)
Winds: calm
Visibility: 10 or more miles (16+ km)
Ceiling: 3100 feet AGL
Clouds: few clouds at 700 feet AGL
broken clouds at 3100 feet AGL
overcast cloud deck at 6500 feet AGL
Weather: automated observation with no human augmentation;
there may or may not be significant weather present at this time

METAR text: KTVL 042353Z AUTO 00000KT 10SM -RA FEW010 BKN039 OVC065 02/02 A2985 RMK AO2 SLP101 P0001 60005 T00220017 10022 20006 50003
Conditions at: KTVL (SOUTH LAKE TAHOE, CA, US) observed 2353 UTC 04 December 2019
Temperature: 2.2°C (36°F)
Dewpoint: 1.7°C (35°F) [RH = 96%]
Pressure (altimeter): 29.85 inches Hg (1010.9 mb)
[Sea-level pressure: 1010.1 mb]
Winds: calm
Visibility: 10 or more miles (16+ km)
Ceiling: 3900 feet AGL
Clouds: few clouds at 1000 feet AGL
broken clouds at 3900 feet AGL
overcast cloud deck at 6500 feet AGL
Weather: -RA  (light rain)

METAR text: KTVL 042349Z AUTO 00000KT 10SM -RA SCT010 BKN039 OVC070 02/02 A2985 RMK AO2 P0001
Conditions at: KTVL (SOUTH LAKE TAHOE, CA, US) observed 2349 UTC 04 December 2019
Temperature: 2.0°C (36°F)
Dewpoint: 2.0°C (36°F) [RH = 100%]
Pressure (altimeter): 29.85 inches Hg (1010.9 mb)
Winds: calm
Visibility: 10 or more miles (16+ km)
Ceiling: 3900 feet AGL
Clouds: scattered clouds at 1000 feet AGL
broken clouds at 3900 feet AGL
overcast cloud deck at 7000 feet AGL
Weather: -RA  (light rain)

METAR text: KTVL 042342Z AUTO 18003KT 9SM -RA FEW006 BKN013 OVC035 02/02 A2985 RMK AO2 P0001 T00220017
Conditions at: KTVL (SOUTH LAKE TAHOE, CA, US) observed 2342 UTC 04 December 2019
Temperature: 2.2°C (36°F)
Dewpoint: 1.7°C (35°F) [RH = 96%]
Pressure (altimeter): 29.85 inches Hg (1010.9 mb)
Winds: from the S (180 degrees) at 3 MPH (3 knots; 1.5 m/s)
Visibility: 9 miles (14 km)
Ceiling: 1300 feet AGL
Clouds: few clouds at 600 feet AGL
broken clouds at 1300 feet AGL
overcast cloud deck at 3500 feet AGL
Weather: -RA  (light rain)

METAR text: KTVL 042253Z AUTO 00000KT 7SM -RA BKN006 OVC044 02/02 A2984 RMK AO2 SLP101 P0000 T00220017
Conditions at: KTVL (SOUTH LAKE TAHOE, CA, US) observed 2253 UTC 04 December 2019
Temperature: 2.2°C (36°F)
Dewpoint: 1.7°C (35°F) [RH = 96%]
Pressure (altimeter): 29.84 inches Hg (1010.6 mb)
[Sea-level pressure: 1010.1 mb]
Winds: calm
Visibility: 7 miles (11 km)
Ceiling: 600 feet AGL
Clouds: broken clouds at 600 feet AGL
overcast cloud deck at 4400 feet AGL
Weather: -RA  (light rain)

METAR text: KTVL 042245Z AUTO 00000KT 5SM -RA BR SCT006 OVC046 02/02 A2984 RMK AO2 P0000 T00220017
Conditions at: KTVL (SOUTH LAKE TAHOE, CA, US) observed 2245 UTC 04 December 2019
Temperature: 2.2°C (36°F)
Dewpoint: 1.7°C (35°F) [RH = 96%]
Pressure (altimeter): 29.84 inches Hg (1010.6 mb)
Winds: calm
Visibility: 5 miles ( 8 km)
Ceiling: 4600 feet AGL
Clouds: scattered clouds at 600 feet AGL
overcast cloud deck at 4600 feet AGL
Weather: -RA BR  (light rain, mist)

METAR text: KTVL 042232Z AUTO 00000KT 6SM -RA BR OVC043 02/02 A2984 RMK AO2 P0000 T00220017
Conditions at: KTVL (SOUTH LAKE TAHOE, CA, US) observed 2232 UTC 04 December 2019
Temperature: 2.2°C (36°F)
Dewpoint: 1.7°C (35°F) [RH = 96%]
Pressure (altimeter): 29.84 inches Hg (1010.6 mb)
Winds: calm
Visibility: 6 miles (10 km)
Ceiling: 4300 feet AGL
Clouds: overcast cloud deck at 4300 feet AGL
Weather: -RA BR  (light rain, mist)

METAR text: KTVL 042206Z AUTO 00000KT 3SM -RA BR SCT014 SCT021 OVC032 02/02 A2984 RMK AO2 P0000 T00220017
Conditions at: KTVL (SOUTH LAKE TAHOE, CA, US) observed 2206 UTC 04 December 2019
Temperature: 2.2°C (36°F)
Dewpoint: 1.7°C (35°F) [RH = 96%]
Pressure (altimeter): 29.84 inches Hg (1010.6 mb)
Winds: calm
Visibility: 3 miles ( 5 km)
Ceiling: 3200 feet AGL
Clouds: scattered clouds at 1400 feet AGL
scattered clouds at 2100 feet AGL
overcast cloud deck at 3200 feet AGL
Weather: -RA BR  (light rain, mist)

METAR text: KTVL 042156Z AUTO 00000KT 2 1/2SM -RA BR BKN014 BKN022 OVC034 02/02 A2984 RMK AO2 P0000 T00220017
Conditions at: KTVL (SOUTH LAKE TAHOE, CA, US) observed 2156 UTC 04 December 2019
Temperature: 2.2°C (36°F)
Dewpoint: 1.7°C (35°F) [RH = 96%]
Pressure (altimeter): 29.84 inches Hg (1010.6 mb)
Winds: calm
Visibility: 2.50 miles (4.02 km)
Ceiling: 1400 feet AGL
Clouds: broken clouds at 1400 feet AGL
broken clouds at 2200 feet AGL
overcast cloud deck at 3400 feet AGL
Weather: -RA BR  (light rain, mist)

METAR text: KTVL 042153Z AUTO 00000KT 3SM -RA BR BKN016 BKN022 OVC032 02/02 A2984 RMK AO2 RAB26 SLP100 P0001 T00220017
Conditions at: KTVL (SOUTH LAKE TAHOE, CA, US) observed 2153 UTC 04 December 2019
Temperature: 2.2°C (36°F)
Dewpoint: 1.7°C (35°F) [RH = 96%]
Pressure (altimeter): 29.84 inches Hg (1010.6 mb)
[Sea-level pressure: 1010.0 mb]
Winds: calm
Visibility: 3 miles ( 5 km)
Ceiling: 1600 feet AGL
Clouds: broken clouds at 1600 feet AGL
broken clouds at 2200 feet AGL
overcast cloud deck at 3200 feet AGL
Weather: -RA BR  (light rain, mist)

METAR text: KTVL 042053Z AUTO 00000KT 6SM BR FEW006 SCT011 OVC023 02/01 A2985 RMK AO2 RAE36 SLP102 P0000 60003 T00220011 58022
Conditions at: KTVL (SOUTH LAKE TAHOE, CA, US) observed 2053 UTC 04 December 2019
Temperature: 2.2°C (36°F)
Dewpoint: 1.1°C (34°F) [RH = 92%]
Pressure (altimeter): 29.85 inches Hg (1010.9 mb)
[Sea-level pressure: 1010.2 mb]
Winds: calm
Visibility: 6 miles (10 km)
Ceiling: 2300 feet AGL
Clouds: few clouds at 600 feet AGL
scattered clouds at 1100 feet AGL
overcast cloud deck at 2300 feet AGL
Weather: BR  (mist)

METAR text: KTVL 042046Z AUTO 00000KT 7SM SCT006 SCT011 OVC023 02/01 A2985 RMK AO2 RAE36 P0000 T00220011
Conditions at: KTVL (SOUTH LAKE TAHOE, CA, US) observed 2046 UTC 04 December 2019
Temperature: 2.2°C (36°F)
Dewpoint: 1.1°C (34°F) [RH = 92%]
Pressure (altimeter): 29.85 inches Hg (1010.9 mb)
Winds: calm
Visibility: 7 miles (11 km)
Ceiling: 2300 feet AGL
Clouds: scattered clouds at 600 feet AGL
scattered clouds at 1100 feet AGL
overcast cloud deck at 2300 feet AGL
Weather: automated observation with no human augmentation;
there may or may not be significant weather present at this time

METAR text: KTVL 042008Z AUTO 00000KT 7SM -RA OVC009 02/01 A2987 RMK AO2 P0000 T00170011
Conditions at: KTVL (SOUTH LAKE TAHOE, CA, US) observed 2008 UTC 04 December 2019
Temperature: 1.7°C (35°F)
Dewpoint: 1.1°C (34°F) [RH = 96%]
Pressure (altimeter): 29.87 inches Hg (1011.6 mb)
Winds: calm
Visibility: 7 miles (11 km)
Ceiling: 900 feet AGL
Clouds: overcast cloud deck at 900 feet AGL
Weather: -RA  (light rain)

METAR text: KTVL 041953Z AUTO 17003KT 6SM -RA BR BKN010 OVC040 01/01 A2988 RMK AO2 UPB1855E11RAB1859SNE1855 SLP115 P0000 T00110011
Conditions at: KTVL (SOUTH LAKE TAHOE, CA, US) observed 1953 UTC 04 December 2019
Temperature: 1.1°C (34°F)
Dewpoint: 1.1°C (34°F) [RH = 100%]
Pressure (altimeter): 29.88 inches Hg (1011.9 mb)
[Sea-level pressure: 1011.5 mb]
Winds: from the S (170 degrees) at 3 MPH (3 knots; 1.5 m/s)
Visibility: 6 miles (10 km)
Ceiling: 1000 feet AGL
Clouds: broken clouds at 1000 feet AGL
overcast cloud deck at 4000 feet AGL
Weather: -RA BR  (light rain, mist)

METAR text: KTVL 041945Z AUTO 17004KT 6SM -RA BR OVC010 01/01 A2989 RMK AO2 UPB1855E11RAB1859SNE1855 P0000 T00110006
Conditions at: KTVL (SOUTH LAKE TAHOE, CA, US) observed 1945 UTC 04 December 2019
Temperature: 1.1°C (34°F)
Dewpoint: 0.6°C (33°F) [RH = 96%]
Pressure (altimeter): 29.89 inches Hg (1012.3 mb)
Winds: from the S (170 degrees) at 5 MPH (4 knots; 2.1 m/s)
Visibility: 6 miles (10 km)
Ceiling: 1000 feet AGL
Clouds: overcast cloud deck at 1000 feet AGL
Weather: -RA BR  (light rain, mist)

METAR text: KTVL 041937Z AUTO 00000KT 4SM -RA BR BKN010 OVC025 01/01 A2989 RMK AO2 UPB1855E11RAB1859SNE1855 P0000 T00110006
Conditions at: KTVL (SOUTH LAKE TAHOE, CA, US) observed 1937 UTC 04 December 2019
Temperature: 1.1°C (34°F)
Dewpoint: 0.6°C (33°F) [RH = 96%]
Pressure (altimeter): 29.89 inches Hg (1012.3 mb)
Winds: calm
Visibility: 4 miles ( 6 km)
Ceiling: 1000 feet AGL
Clouds: broken clouds at 1000 feet AGL
overcast cloud deck at 2500 feet AGL
Weather: -RA BR  (light rain, mist)

METAR text: KTVL 041922Z AUTO 17003KT 6SM -RA BR OVC010 01/01 A2989 RMK AO2 UPB1855E11RAB1859SNE1855 CIG 008V012 P0000 T00110006
Conditions at: KTVL (SOUTH LAKE TAHOE, CA, US) observed 1922 UTC 04 December 2019
Temperature: 1.1°C (34°F)
Dewpoint: 0.6°C (33°F) [RH = 96%]
Pressure (altimeter): 29.89 inches Hg (1012.3 mb)
Winds: from the S (170 degrees) at 3 MPH (3 knots; 1.5 m/s)
Visibility: 6 miles (10 km)
Ceiling: 1000 feet AGL
Clouds: overcast cloud deck at 1000 feet AGL
Weather: -RA BR  (light rain, mist)

METAR text: KTVL 041855Z AUTO 00000KT 3SM UP BR BKN010 OVC015 01/01 A2990 RMK AO2 UPB55SNE55 P0000 T00110006
Conditions at: KTVL (SOUTH LAKE TAHOE, CA, US) observed 1855 UTC 04 December 2019
Temperature: 1.1°C (34°F)
Dewpoint: 0.6°C (33°F) [RH = 96%]
Pressure (altimeter): 29.90 inches Hg (1012.6 mb)
Winds: calm
Visibility: 3 miles ( 5 km)
Ceiling: 1000 feet AGL
Clouds: broken clouds at 1000 feet AGL
overcast cloud deck at 1500 feet AGL
Weather: BR UP  (mist, unknown precipitation)

METAR text: KTVL 041853Z AUTO 00000KT 2 1/2SM -SN BR OVC013 01/01 A2990 RMK AO2 SLP123 P0003 T00110006
Conditions at: KTVL (SOUTH LAKE TAHOE, CA, US) observed 1853 UTC 04 December 2019
Temperature: 1.1°C (34°F)
Dewpoint: 0.6°C (33°F) [RH = 96%]
Pressure (altimeter): 29.90 inches Hg (1012.6 mb)
[Sea-level pressure: 1012.3 mb]
Winds: calm
Visibility: 2.50 miles (4.02 km)
Ceiling: 1300 feet AGL
Clouds: overcast cloud deck at 1300 feet AGL
Weather: -SN BR  (light snow, mist)

METAR text: KTVL 041841Z AUTO 00000KT 2SM -SN BR FEW009 OVC013 01/01 A2991 RMK AO2 P0003 T00060006
Conditions at: KTVL (SOUTH LAKE TAHOE, CA, US) observed 1841 UTC 04 December 2019
Temperature: 0.6°C (33°F)
Dewpoint: 0.6°C (33°F) [RH = 100%]
Pressure (altimeter): 29.91 inches Hg (1013.0 mb)
Winds: calm
Visibility: 2.00 miles (3.22 km)
Ceiling: 1300 feet AGL
Clouds: few clouds at 900 feet AGL
overcast cloud deck at 1300 feet AGL
Weather: -SN BR  (light snow, mist)

METAR text: KTVL 041835Z AUTO 00000KT 1 1/4SM -SN BR OVC013 01/01 A2991 RMK AO2 P0003 T00060006
Conditions at: KTVL (SOUTH LAKE TAHOE, CA, US) observed 1835 UTC 04 December 2019
Temperature: 0.6°C (33°F)
Dewpoint: 0.6°C (33°F) [RH = 100%]
Pressure (altimeter): 29.91 inches Hg (1013.0 mb)
Winds: calm
Visibility: 1.25 miles (2.01 km)
Ceiling: 1300 feet AGL
Clouds: overcast cloud deck at 1300 feet AGL
Weather: -SN BR  (light snow, mist)

METAR text: KTVL 041753Z AUTO 00000KT 1/2SM SN FG FEW008 OVC012 01/00 A2992 RMK AO2 SLP132 P0004 60009 I6001 T00060000 10011 21006 51005
Conditions at: KTVL (SOUTH LAKE TAHOE, CA, US) observed 1753 UTC 04 December 2019
Temperature: 0.6°C (33°F)
Dewpoint: 0.0°C (32°F) [RH = 96%]
Pressure (altimeter): 29.92 inches Hg (1013.3 mb)
[Sea-level pressure: 1013.2 mb]
Winds: calm
Visibility: 0.50 miles (0.80 km)
Ceiling: 1200 feet AGL
Clouds: few clouds at 800 feet AGL
overcast cloud deck at 1200 feet AGL
Weather: SN FG  (moderate snow, fog)

METAR text: KTVL 041751Z AUTO 00000KT 1/2SM SN FG SCT008 OVC012 01/00 A2992 RMK AO2 P0004
Conditions at: KTVL (SOUTH LAKE TAHOE, CA, US) observed 1751 UTC 04 December 2019
Temperature: 1.0°C (34°F)
Dewpoint: 0.0°C (32°F) [RH = 93%]
Pressure (altimeter): 29.92 inches Hg (1013.3 mb)
Winds: calm
Visibility: 0.50 miles (0.80 km)
Ceiling: 1200 feet AGL
Clouds: scattered clouds at 800 feet AGL
overcast cloud deck at 1200 feet AGL
Weather: SN FG  (moderate snow, fog)

METAR text: KTVL 041739Z AUTO 00000KT 3/4SM -SN BR VV010 01/00 A2992 RMK AO2 P0002 T00060000
Conditions at: KTVL (SOUTH LAKE TAHOE, CA, US) observed 1739 UTC 04 December 2019
Temperature: 0.6°C (33°F)
Dewpoint: 0.0°C (32°F) [RH = 96%]
Pressure (altimeter): 29.92 inches Hg (1013.3 mb)
Winds: calm
Visibility: 0.75 miles (1.21 km)
Ceiling: indefinite ceiling with vertical visibility of 1000 feet AGL
Clouds: obscured sky
Weather: -SN BR  (light snow, mist)

METAR text: KTVL 041717Z AUTO 00000KT 1 1/4SM -SN BR BKN008 OVC014 01/00 A2992 RMK AO2 P0001 T00060000
Conditions at: KTVL (SOUTH LAKE TAHOE, CA, US) observed 1717 UTC 04 December 2019
Temperature: 0.6°C (33°F)
Dewpoint: 0.0°C (32°F) [RH = 96%]
Pressure (altimeter): 29.92 inches Hg (1013.3 mb)
Winds: calm
Visibility: 1.25 miles (2.01 km)
Ceiling: 800 feet AGL
Clouds: broken clouds at 800 feet AGL
overcast cloud deck at 1400 feet AGL
Weather: -SN BR  (light snow, mist)

METAR text: KTVL 041705Z AUTO 00000KT 1 3/4SM -SN BR SCT008 OVC020 01/00 A2992 RMK AO2 P0000 T00060000
Conditions at: KTVL (SOUTH LAKE TAHOE, CA, US) observed 1705 UTC 04 December 2019
Temperature: 0.6°C (33°F)
Dewpoint: 0.0°C (32°F) [RH = 96%]
Pressure (altimeter): 29.92 inches Hg (1013.3 mb)
Winds: calm
Visibility: 1.75 miles (2.82 km)
Ceiling: 2000 feet AGL
Clouds: scattered clouds at 800 feet AGL
overcast cloud deck at 2000 feet AGL
Weather: -SN BR  (light snow, mist)

METAR text: KTVL 041653Z AUTO 00000KT 2 1/2SM -SN BR FEW008 OVC022 01/01 A2992 RMK AO2 RAE48SNB48 SLP128 P0004 T00060006
Conditions at: KTVL (SOUTH LAKE TAHOE, CA, US) observed 1653 UTC 04 December 2019
Temperature: 0.6°C (33°F)
Dewpoint: 0.6°C (33°F) [RH = 100%]
Pressure (altimeter): 29.92 inches Hg (1013.3 mb)
[Sea-level pressure: 1012.8 mb]
Winds: calm
Visibility: 2.50 miles (4.02 km)
Ceiling: 2200 feet AGL
Clouds: few clouds at 800 feet AGL
overcast cloud deck at 2200 feet AGL
Weather: -SN BR  (light snow, mist)

METAR text: KTVL 041637Z AUTO 00000KT 4SM -RA BR FEW012 OVC024 01/01 A2992 RMK AO2 P0002 T00060006
Conditions at: KTVL (SOUTH LAKE TAHOE, CA, US) observed 1637 UTC 04 December 2019
Temperature: 0.6°C (33°F)
Dewpoint: 0.6°C (33°F) [RH = 100%]
Pressure (altimeter): 29.92 inches Hg (1013.3 mb)
Winds: calm
Visibility: 4 miles ( 6 km)
Ceiling: 2400 feet AGL
Clouds: few clouds at 1200 feet AGL
overcast cloud deck at 2400 feet AGL
Weather: -RA BR  (light rain, mist)

METAR text: KTVL 041621Z AUTO 17006KT 5SM -RA BR BKN012 OVC028 01/00 A2992 RMK AO2 P0001 T00060000
Conditions at: KTVL (SOUTH LAKE TAHOE, CA, US) observed 1621 UTC 04 December 2019
Temperature: 0.6°C (33°F)
Dewpoint: 0.0°C (32°F) [RH = 96%]
Pressure (altimeter): 29.92 inches Hg (1013.3 mb)
Winds: from the S (170 degrees) at 7 MPH (6 knots; 3.1 m/s)
Visibility: 5 miles ( 8 km)
Ceiling: 1200 feet AGL
Clouds: broken clouds at 1200 feet AGL
overcast cloud deck at 2800 feet AGL
Weather: -RA BR  (light rain, mist)

METAR text: KTVL 041553Z AUTO 00000KT 5SM -RA BR FEW003 SCT027 OVC038 01/01 A2991 RMK AO2 SLP124 P0000 T00060006
Conditions at: KTVL (SOUTH LAKE TAHOE, CA, US) observed 1553 UTC 04 December 2019
Temperature: 0.6°C (33°F)
Dewpoint: 0.6°C (33°F) [RH = 100%]
Pressure (altimeter): 29.91 inches Hg (1013.0 mb)
[Sea-level pressure: 1012.4 mb]
Winds: calm
Visibility: 5 miles ( 8 km)
Ceiling: 3800 feet AGL
Clouds: few clouds at 300 feet AGL
scattered clouds at 2700 feet AGL
overcast cloud deck at 3800 feet AGL
Weather: -RA BR  (light rain, mist)

METAR text: KTVL 041543Z AUTO 17004KT 4SM -RA BR FEW004 SCT031 OVC040 01/00 A2991 RMK AO2 P0000 T00060000
Conditions at: KTVL (SOUTH LAKE TAHOE, CA, US) observed 1543 UTC 04 December 2019
Temperature: 0.6°C (33°F)
Dewpoint: 0.0°C (32°F) [RH = 96%]
Pressure (altimeter): 29.91 inches Hg (1013.0 mb)
Winds: from the S (170 degrees) at 5 MPH (4 knots; 2.1 m/s)
Visibility: 4 miles ( 6 km)
Ceiling: 4000 feet AGL
Clouds: few clouds at 400 feet AGL
scattered clouds at 3100 feet AGL
overcast cloud deck at 4000 feet AGL
Weather: -RA BR  (light rain, mist)

METAR text: KTVL 041534Z AUTO 18003KT 5SM -RA BR FEW004 SCT024 OVC040 01/00 A2990 RMK AO2 P0000 T00060000
Conditions at: KTVL (SOUTH LAKE TAHOE, CA, US) observed 1534 UTC 04 December 2019
Temperature: 0.6°C (33°F)
Dewpoint: 0.0°C (32°F) [RH = 96%]
Pressure (altimeter): 29.90 inches Hg (1012.6 mb)
Winds: from the S (180 degrees) at 3 MPH (3 knots; 1.5 m/s)
Visibility: 5 miles ( 8 km)
Ceiling: 4000 feet AGL
Clouds: few clouds at 400 feet AGL
scattered clouds at 2400 feet AGL
overcast cloud deck at 4000 feet AGL
Weather: -RA BR  (light rain, mist)

METAR text: KTVL 041506Z AUTO 00000KT 5SM -RA BR FEW003 BKN022 OVC035 01/00 A2990 RMK AO2 P0000 T00060000
Conditions at: KTVL (SOUTH LAKE TAHOE, CA, US) observed 1506 UTC 04 December 2019
Temperature: 0.6°C (33°F)
Dewpoint: 0.0°C (32°F) [RH = 96%]
Pressure (altimeter): 29.90 inches Hg (1012.6 mb)
Winds: calm
Visibility: 5 miles ( 8 km)
Ceiling: 2200 feet AGL
Clouds: few clouds at 300 feet AGL
broken clouds at 2200 feet AGL
overcast cloud deck at 3500 feet AGL
Weather: -RA BR  (light rain, mist)

METAR text: KTVL 041503Z AUTO 00000KT 4SM -RA BR SCT013 BKN020 OVC035 01/00 A2990 RMK AO2 P0000 T00060000
Conditions at: KTVL (SOUTH LAKE TAHOE, CA, US) observed 1503 UTC 04 December 2019
Temperature: 0.6°C (33°F)
Dewpoint: 0.0°C (32°F) [RH = 96%]
Pressure (altimeter): 29.90 inches Hg (1012.6 mb)
Winds: calm
Visibility: 4 miles ( 6 km)
Ceiling: 2000 feet AGL
Clouds: scattered clouds at 1300 feet AGL
broken clouds at 2000 feet AGL
overcast cloud deck at 3500 feet AGL
Weather: -RA BR  (light rain, mist)

METAR text: KTVL 041453Z AUTO 00000KT 5SM -RA BR BKN014 BKN026 OVC035 01/00 A2991 RMK AO2 UPE05RAB52FZRAB05E52 SLP122 P0001 60001 I1001 I3001 T00060000 58010
Conditions at: KTVL (SOUTH LAKE TAHOE, CA, US) observed 1453 UTC 04 December 2019
Temperature: 0.6°C (33°F)
Dewpoint: 0.0°C (32°F) [RH = 96%]
Pressure (altimeter): 29.91 inches Hg (1013.0 mb)
[Sea-level pressure: 1012.2 mb]
Winds: calm
Visibility: 5 miles ( 8 km)
Ceiling: 1400 feet AGL
Clouds: broken clouds at 1400 feet AGL
broken clouds at 2600 feet AGL
overcast cloud deck at 3500 feet AGL
Weather: -RA BR  (light rain, mist)

METAR text: KTVL 041433Z AUTO 00000KT 4SM -FZRA BR BKN014 OVC030 00/00 A2992 RMK AO2 UPE05FZRAB05 P0001 I1001 T00000000
Conditions at: KTVL (SOUTH LAKE TAHOE, CA, US) observed 1433 UTC 04 December 2019
Temperature: 0.0°C (32°F)
Dewpoint: 0.0°C (32°F) [RH = 100%]
Pressure (altimeter): 29.92 inches Hg (1013.3 mb)
Winds: calm
Visibility: 4 miles ( 6 km)
Ceiling: 1400 feet AGL
Clouds: broken clouds at 1400 feet AGL
overcast cloud deck at 3000 feet AGL
Weather: -FZRA BR  (light freezing rain, mist)

METAR text: KTVL 041415Z AUTO 19003KT 4SM -FZRA BR SCT014 OVC033 00/00 A2992 RMK AO2 UPE05FZRAB05 P0000 I1000 T00000000
Conditions at: KTVL (SOUTH LAKE TAHOE, CA, US) observed 1415 UTC 04 December 2019
Temperature: 0.0°C (32°F)
Dewpoint: 0.0°C (32°F) [RH = 100%]
Pressure (altimeter): 29.92 inches Hg (1013.3 mb)
Winds: from the S (190 degrees) at 3 MPH (3 knots; 1.5 m/s)
Visibility: 4 miles ( 6 km)
Ceiling: 3300 feet AGL
Clouds: scattered clouds at 1400 feet AGL
overcast cloud deck at 3300 feet AGL
Weather: -FZRA BR  (light freezing rain, mist)

METAR text: KTVL 041411Z AUTO 20003KT 4SM -FZRA BR BKN014 BKN028 OVC033 00/M01 A2992 RMK AO2 UPE05FZRAB05 P0000 I1000 T00001006
Conditions at: KTVL (SOUTH LAKE TAHOE, CA, US) observed 1411 UTC 04 December 2019
Temperature: 0.0°C (32°F)
Dewpoint: -0.6°C (31°F) [RH = 96%]
Pressure (altimeter): 29.92 inches Hg (1013.3 mb)
Winds: from the SSW (200 degrees) at 3 MPH (3 knots; 1.5 m/s)
Visibility: 4 miles ( 6 km)
Ceiling: 1400 feet AGL
Clouds: broken clouds at 1400 feet AGL
broken clouds at 2800 feet AGL
overcast cloud deck at 3300 feet AGL
Weather: -FZRA BR  (light freezing rain, mist)

METAR text: KTVL 041400Z AUTO 17003KT 3SM UP BR BKN012 OVC033 00/M01 A2992 RMK AO2 P0000 T00001006
Conditions at: KTVL (SOUTH LAKE TAHOE, CA, US) observed 1400 UTC 04 December 2019
Temperature: 0.0°C (32°F)
Dewpoint: -0.6°C (31°F) [RH = 96%]
Pressure (altimeter): 29.92 inches Hg (1013.3 mb)
Winds: from the S (170 degrees) at 3 MPH (3 knots; 1.5 m/s)
Visibility: 3 miles ( 5 km)
Ceiling: 1200 feet AGL
Clouds: broken clouds at 1200 feet AGL
overcast cloud deck at 3300 feet AGL
Weather: BR UP  (mist, unknown precipitation)

METAR text: KTVL 041353Z AUTO 18004KT 5SM UP BR BKN012 OVC035 00/M01 A2992 RMK AO2 SLP127 P0000 T00001006
Conditions at: KTVL (SOUTH LAKE TAHOE, CA, US) observed 1353 UTC 04 December 2019
Temperature: 0.0°C (32°F)
Dewpoint: -0.6°C (31°F) [RH = 96%]
Pressure (altimeter): 29.92 inches Hg (1013.3 mb)
[Sea-level pressure: 1012.7 mb]
Winds: from the S (180 degrees) at 5 MPH (4 knots; 2.1 m/s)
Visibility: 5 miles ( 8 km)
Ceiling: 1200 feet AGL
Clouds: broken clouds at 1200 feet AGL
overcast cloud deck at 3500 feet AGL
Weather: BR UP  (mist, unknown precipitation)

METAR text: KTVL 041325Z AUTO 19004KT 5SM UP BR BKN012 BKN027 OVC065 00/M01 A2993 RMK AO2 P0000 T00001006
Conditions at: KTVL (SOUTH LAKE TAHOE, CA, US) observed 1325 UTC 04 December 2019
Temperature: 0.0°C (32°F)
Dewpoint: -0.6°C (31°F) [RH = 96%]
Pressure (altimeter): 29.93 inches Hg (1013.6 mb)
Winds: from the S (190 degrees) at 5 MPH (4 knots; 2.1 m/s)
Visibility: 5 miles ( 8 km)
Ceiling: 1200 feet AGL
Clouds: broken clouds at 1200 feet AGL
broken clouds at 2700 feet AGL
overcast cloud deck at 6500 feet AGL
Weather: BR UP  (mist, unknown precipitation)

Forecast for: KTVL (SOUTH LAKE TAHOE, CA, US)
Text: KTVL 052320Z 0600/0624 19007KT P6SM SCT070 SCT140
Forecast period: 0000 to 0500 UTC 06 December 2019
Forecast type: FROM: standard forecast or significant change
Winds: from the S (190 degrees) at 8 MPH (7 knots; 3.6 m/s)
Visibility: 6 or more miles 10+ km)
Ceiling: at least 12,000 feet AGL
Clouds: scattered clouds at 7000 feet AGL
scattered clouds at 14000 feet AGL
Weather: no significant weather forecast for this period
Text: FM060500 VRB03KT 1SM BR SCT010
Forecast period: 0500 to 1200 UTC 06 December 2019
Forecast type: FROM: standard forecast or significant change
Winds: variable direction winds at 3 MPH (3 knots; 1.5 m/s)
Visibility: 1.00 miles (1.61 km)
Ceiling: at least 12,000 feet AGL
Clouds: scattered clouds at 1000 feet AGL
Weather: BR  (mist)
Text: FM061200 19006KT P6SM SCT070 BKN200
Forecast period: 1200 UTC 06 December 2019 to 0000 UTC 07 December 2019
Forecast type: FROM: standard forecast or significant change
Winds: from the S (190 degrees) at 7 MPH (6 knots; 3.1 m/s)
Visibility: 6 or more miles 10+ km)
Ceiling: 20000 feet AGL
Clouds: scattered clouds at 7000 feet AGL
broken clouds at 20000 feet AGL
Weather: no significant weather forecast for this period